sensor_id;sensor_type;location;lat;lon;timestamp;P1;durP1;ratioP1;P2;durP2;ratioP2
18499;SDS011;9379;52.134;11.576;2022-11-15T00:01:34;13.73;;;11.02;;
18499;SDS011;9379;52.134;11.576;2022-11-15T00:04:02;38.55;;;13.30;;
18499;SDS011;9379;52.134;11.576;2022-11-15T00:06:30;16.50;;;11.45;;
18499;SDS011;9379;52.134;11.576;2022-11-15T00:08:57;12.85;;;10.60;;
18499;SDS011;9379;52.134;11.576;2022-11-15T00:11:24;13.52;;;11.98;;
18499;SDS011;9379;52.134;11.576;2022-11-15T00:13:54;14.70;;;10.70;;
18499;SDS011;9379;52.134;11.576;2022-11-15T00:16:21;14.93;;;11.40;;
18499;SDS011;9379;52.134;11.576;2022-11-15T00:18:49;16.27;;;11.70;;
18499;SDS011;9379;52.134;11.576;2022-11-15T00:21:16;15.90;;;10.93;;
18499;SDS011;9379;52.134;11.576;2022-11-15T00:23:45;12.93;;;10.00;;
18499;SDS011;9379;52.134;11.576;2022-11-15T00:26:12;9.73;;;8.52;;
18499;SDS011;9379;52.134;11.576;2022-11-15T00:28:41;14.32;;;10.48;;
18499;SDS011;9379;52.134;11.576;2022-11-15T00:31:09;16.85;;;11.82;;
18499;SDS011;9379;52.134;11.576;2022-11-15T00:47:22;14.48;;;10.93;;
18499;SDS011;9379;52.134;11.576;2022-11-15T00:49:48;13.95;;;10.82;;
18499;SDS011;9379;52.134;11.576;2022-11-15T00:52:15;13.40;;;10.13;;
18499;SDS011;9379;52.134;11.576;2022-11-15T00:54:42;12.85;;;9.75;;
18499;SDS011;9379;52.134;11.576;2022-11-15T00:57:09;16.10;;;11.15;;
18499;SDS011;9379;52.134;11.576;2022-11-15T00:59:36;12.43;;;10.30;;
18499;SDS011;9379;52.134;11.576;2022-11-15T01:02:03;15.05;;;11.30;;
18499;SDS011;9379;52.134;11.576;2022-11-15T01:04:31;12.73;;;9.68;;
18499;SDS011;9379;52.134;11.576;2022-11-15T01:06:58;13.60;;;10.57;;
18499;SDS011;9379;52.134;11.576;2022-11-15T01:12:19;13.77;;;11.93;;
18499;SDS011;9379;52.134;11.576;2022-11-15T01:14:46;14.40;;;11.05;;
18499;SDS011;9379;52.134;11.576;2022-11-15T01:17:13;17.15;;;11.20;;
18499;SDS011;9379;52.134;11.576;2022-11-15T01:19:41;14.70;;;10.98;;
18499;SDS011;9379;52.134;11.576;2022-11-15T01:22:08;13.60;;;10.30;;
18499;SDS011;9379;52.134;11.576;2022-11-15T01:24:34;14.45;;;10.65;;
18499;SDS011;9379;52.134;11.576;2022-11-15T01:27:01;16.25;;;11.23;;
18499;SDS011;9379;52.134;11.576;2022-11-15T01:29:28;12.75;;;10.05;;
18499;SDS011;9379;52.134;11.576;2022-11-15T01:31:55;18.98;;;12.65;;
18499;SDS011;9379;52.134;11.576;2022-11-15T01:34:21;14.43;;;10.40;;
18499;SDS011;9379;52.134;11.576;2022-11-15T01:36:50;15.07;;;11.02;;
18499;SDS011;9379;52.134;11.576;2022-11-15T01:39:16;15.73;;;10.65;;
18499;SDS011;9379;52.134;11.576;2022-11-15T01:41:44;11.88;;;10.05;;
18499;SDS011;9379;52.134;11.576;2022-11-15T01:47:06;15.52;;;12.68;;
18499;SDS011;9379;52.134;11.576;2022-11-15T01:49:35;11.70;;;8.68;;
18499;SDS011;9379;52.134;11.576;2022-11-15T01:52:07;15.32;;;9.55;;
18499;SDS011;9379;52.134;11.576;2022-11-15T01:54:36;12.90;;;9.57;;
18499;SDS011;9379;52.134;11.576;2022-11-15T01:57:04;12.98;;;11.07;;
18499;SDS011;9379;52.134;11.576;2022-11-15T01:59:34;12.68;;;9.73;;
18499;SDS011;9379;52.134;11.576;2022-11-15T02:02:03;13.88;;;10.30;;
18499;SDS011;9379;52.134;11.576;2022-11-15T02:04:30;12.68;;;8.27;;
18499;SDS011;9379;52.134;11.576;2022-11-15T02:06:58;12.68;;;10.00;;
18499;SDS011;9379;52.134;11.576;2022-11-15T02:09:29;13.73;;;10.20;;
18499;SDS011;9379;52.134;11.576;2022-11-15T02:11:56;13.48;;;10.52;;
18499;SDS011;9379;52.134;11.576;2022-11-15T02:14:25;12.25;;;7.82;;
18499;SDS011;9379;52.134;11.576;2022-11-15T02:16:57;10.80;;;9.50;;
18499;SDS011;9379;52.134;11.576;2022-11-15T02:22:37;11.55;;;8.38;;
18499;SDS011;9379;52.134;11.576;2022-11-15T02:25:20;13.35;;;10.10;;
18499;SDS011;9379;52.134;11.576;2022-11-15T02:31:05;12.25;;;8.90;;
18499;SDS011;9379;52.134;11.576;2022-11-15T02:33:39;13.40;;;9.48;;
18499;SDS011;9379;52.134;11.576;2022-11-15T02:36:13;13.10;;;8.85;;
18499;SDS011;9379;52.134;11.576;2022-11-15T02:44:51;9.40;;;7.60;;
18499;SDS011;9379;52.134;11.576;2022-11-15T02:47:23;12.35;;;8.65;;
18499;SDS011;9379;52.134;11.576;2022-11-15T02:49:54;14.15;;;10.48;;
18499;SDS011;9379;52.134;11.576;2022-11-15T02:52:24;11.35;;;9.48;;
18499;SDS011;9379;52.134;11.576;2022-11-15T02:54:53;12.32;;;8.15;;
18499;SDS011;9379;52.134;11.576;2022-11-15T02:57:22;7.95;;;7.15;;
18499;SDS011;9379;52.134;11.576;2022-11-15T03:00:03;10.65;;;7.82;;
18499;SDS011;9379;52.134;11.576;2022-11-15T03:02:39;8.75;;;7.65;;
18499;SDS011;9379;52.134;11.576;2022-11-15T03:05:14;9.35;;;7.40;;
18499;SDS011;9379;52.134;11.576;2022-11-15T03:07:51;10.88;;;8.25;;
18499;SDS011;9379;52.134;11.576;2022-11-15T03:10:25;10.57;;;8.23;;
18499;SDS011;9379;52.134;11.576;2022-11-15T03:12:59;9.20;;;8.07;;
18499;SDS011;9379;52.134;11.576;2022-11-15T03:15:34;9.40;;;8.13;;
18499;SDS011;9379;52.134;11.576;2022-11-15T03:18:09;10.95;;;8.98;;
18499;SDS011;9379;52.134;11.576;2022-11-15T03:20:39;10.57;;;9.20;;
18499;SDS011;9379;52.134;11.576;2022-11-15T03:23:09;12.52;;;8.50;;
18499;SDS011;9379;52.134;11.576;2022-11-15T03:25:38;10.23;;;8.32;;
18499;SDS011;9379;52.134;11.576;2022-11-15T03:28:11;10.45;;;8.30;;
18499;SDS011;9379;52.134;11.576;2022-11-15T03:30:43;10.75;;;7.45;;
18499;SDS011;9379;52.134;11.576;2022-11-15T03:33:14;9.65;;;8.45;;
18499;SDS011;9379;52.134;11.576;2022-11-15T03:35:42;14.07;;;10.40;;
18499;SDS011;9379;52.134;11.576;2022-11-15T03:38:11;12.65;;;10.10;;
18499;SDS011;9379;52.134;11.576;2022-11-15T03:40:45;13.48;;;10.32;;
18499;SDS011;9379;52.134;11.576;2022-11-15T03:43:18;11.85;;;9.07;;
18499;SDS011;9379;52.134;11.576;2022-11-15T03:45:51;14.52;;;10.85;;
18499;SDS011;9379;52.134;11.576;2022-11-15T03:48:30;10.70;;;8.32;;
18499;SDS011;9379;52.134;11.576;2022-11-15T03:51:02;10.02;;;9.00;;
18499;SDS011;9379;52.134;11.576;2022-11-15T03:53:30;10.70;;;9.00;;
18499;SDS011;9379;52.134;11.576;2022-11-15T03:55:58;13.73;;;9.77;;
18499;SDS011;9379;52.134;11.576;2022-11-15T03:58:24;11.55;;;9.63;;
18499;SDS011;9379;52.134;11.576;2022-11-15T04:00:51;11.63;;;9.25;;
18499;SDS011;9379;52.134;11.576;2022-11-15T04:03:18;11.48;;;9.43;;
18499;SDS011;9379;52.134;11.576;2022-11-15T04:05:47;11.30;;;8.65;;
18499;SDS011;9379;52.134;11.576;2022-11-15T04:08:14;20.42;;;11.23;;
18499;SDS011;9379;52.134;11.576;2022-11-15T04:10:40;12.13;;;9.18;;
18499;SDS011;9379;52.134;11.576;2022-11-15T04:13:07;10.40;;;8.57;;
18499;SDS011;9379;52.134;11.576;2022-11-15T04:15:34;15.70;;;9.32;;
18499;SDS011;9379;52.134;11.576;2022-11-15T04:18:02;11.98;;;7.55;;
18499;SDS011;9379;52.134;11.576;2022-11-15T04:20:30;14.90;;;10.25;;
18499;SDS011;9379;52.134;11.576;2022-11-15T04:23:19;9.23;;;7.55;;
18499;SDS011;9379;52.134;11.576;2022-11-15T04:26:20;8.57;;;7.75;;
18499;SDS011;9379;52.134;11.576;2022-11-15T04:28:49;12.75;;;8.93;;
18499;SDS011;9379;52.134;11.576;2022-11-15T04:31:34;11.13;;;8.73;;
18499;SDS011;9379;52.134;11.576;2022-11-15T04:34:03;12.48;;;9.40;;
18499;SDS011;9379;52.134;11.576;2022-11-15T04:36:30;9.75;;;8.85;;
18499;SDS011;9379;52.134;11.576;2022-11-15T04:39:16;13.18;;;9.05;;
18499;SDS011;9379;52.134;11.576;2022-11-15T04:41:43;11.75;;;9.77;;
18499;SDS011;9379;52.134;11.576;2022-11-15T04:44:10;10.00;;;8.73;;
18499;SDS011;9379;52.134;11.576;2022-11-15T04:46:38;13.80;;;9.63;;
18499;SDS011;9379;52.134;11.576;2022-11-15T04:49:05;7.07;;;6.38;;
18499;SDS011;9379;52.134;11.576;2022-11-15T04:51:38;9.10;;;7.65;;
18499;SDS011;9379;52.134;11.576;2022-11-15T04:54:06;10.07;;;7.95;;
18499;SDS011;9379;52.134;11.576;2022-11-15T04:56:34;9.88;;;8.23;;
18499;SDS011;9379;52.134;11.576;2022-11-15T04:59:02;9.90;;;8.10;;
18499;SDS011;9379;52.134;11.576;2022-11-15T05:01:29;13.30;;;10.88;;
18499;SDS011;9379;52.134;11.576;2022-11-15T05:03:56;16.00;;;12.23;;
18499;SDS011;9379;52.134;11.576;2022-11-15T05:06:52;11.88;;;10.05;;
18499;SDS011;9379;52.134;11.576;2022-11-15T05:09:19;11.43;;;9.60;;
18499;SDS011;9379;52.134;11.576;2022-11-15T05:11:48;15.60;;;10.32;;
18499;SDS011;9379;52.134;11.576;2022-11-15T05:14:16;13.45;;;9.88;;
18499;SDS011;9379;52.134;11.576;2022-11-15T05:16:48;10.48;;;9.38;;
18499;SDS011;9379;52.134;11.576;2022-11-15T05:19:15;13.50;;;11.13;;
18499;SDS011;9379;52.134;11.576;2022-11-15T05:21:45;14.23;;;11.70;;
18499;SDS011;9379;52.134;11.576;2022-11-15T05:24:13;12.73;;;8.60;;
18499;SDS011;9379;52.134;11.576;2022-11-15T05:26:40;9.75;;;8.85;;
18499;SDS011;9379;52.134;11.576;2022-11-15T05:29:09;10.02;;;7.45;;
18499;SDS011;9379;52.134;11.576;2022-11-15T05:31:38;6.68;;;5.80;;
18499;SDS011;9379;52.134;11.576;2022-11-15T05:34:07;10.80;;;7.50;;
18499;SDS011;9379;52.134;11.576;2022-11-15T05:36:35;11.10;;;10.00;;
18499;SDS011;9379;52.134;11.576;2022-11-15T05:39:04;11.00;;;8.77;;
18499;SDS011;9379;52.134;11.576;2022-11-15T05:41:33;10.18;;;8.30;;
18499;SDS011;9379;52.134;11.576;2022-11-15T05:44:03;10.63;;;7.75;;
18499;SDS011;9379;52.134;11.576;2022-11-15T05:46:35;12.65;;;8.88;;
18499;SDS011;9379;52.134;11.576;2022-11-15T05:49:05;12.50;;;9.88;;
18499;SDS011;9379;52.134;11.576;2022-11-15T05:51:36;10.00;;;8.05;;
18499;SDS011;9379;52.134;11.576;2022-11-15T05:54:03;9.00;;;6.88;;
18499;SDS011;9379;52.134;11.576;2022-11-15T05:56:30;18.48;;;9.98;;
18499;SDS011;9379;52.134;11.576;2022-11-15T05:59:00;7.70;;;6.93;;
18499;SDS011;9379;52.134;11.576;2022-11-15T06:01:28;8.23;;;6.97;;
18499;SDS011;9379;52.134;11.576;2022-11-15T06:04:00;10.02;;;8.00;;
18499;SDS011;9379;52.134;11.576;2022-11-15T06:06:27;13.48;;;9.15;;
18499;SDS011;9379;52.134;11.576;2022-11-15T06:08:55;11.35;;;8.65;;
18499;SDS011;9379;52.134;11.576;2022-11-15T06:11:22;8.55;;;7.57;;
18499;SDS011;9379;52.134;11.576;2022-11-15T06:13:50;10.60;;;8.55;;
18499;SDS011;9379;52.134;11.576;2022-11-15T06:16:18;10.20;;;8.13;;
18499;SDS011;9379;52.134;11.576;2022-11-15T06:18:48;12.05;;;8.70;;
18499;SDS011;9379;52.134;11.576;2022-11-15T06:21:18;7.88;;;7.07;;
18499;SDS011;9379;52.134;11.576;2022-11-15T06:23:46;10.23;;;7.80;;
18499;SDS011;9379;52.134;11.576;2022-11-15T06:26:13;7.55;;;6.70;;
18499;SDS011;9379;52.134;11.576;2022-11-15T06:28:41;8.95;;;6.60;;
18499;SDS011;9379;52.134;11.576;2022-11-15T06:31:09;7.93;;;7.22;;
18499;SDS011;9379;52.134;11.576;2022-11-15T06:33:37;6.22;;;5.47;;
18499;SDS011;9379;52.134;11.576;2022-11-15T06:36:05;9.98;;;6.47;;
18499;SDS011;9379;52.134;11.576;2022-11-15T06:38:36;8.65;;;6.25;;
18499;SDS011;9379;52.134;11.576;2022-11-15T06:41:03;7.80;;;6.15;;
18499;SDS011;9379;52.134;11.576;2022-11-15T06:43:34;6.25;;;5.63;;
18499;SDS011;9379;52.134;11.576;2022-11-15T06:46:05;7.57;;;5.68;;
18499;SDS011;9379;52.134;11.576;2022-11-15T06:48:33;11.27;;;7.22;;
18499;SDS011;9379;52.134;11.576;2022-11-15T06:51:01;10.88;;;7.65;;
18499;SDS011;9379;52.134;11.576;2022-11-15T06:53:32;8.63;;;7.43;;
18499;SDS011;9379;52.134;11.576;2022-11-15T06:56:01;9.23;;;8.27;;
18499;SDS011;9379;52.134;11.576;2022-11-15T06:58:30;12.02;;;8.93;;
18499;SDS011;9379;52.134;11.576;2022-11-15T07:00:58;11.50;;;9.57;;
18499;SDS011;9379;52.134;11.576;2022-11-15T07:03:26;12.82;;;9.13;;
18499;SDS011;9379;52.134;11.576;2022-11-15T07:05:54;9.02;;;7.32;;
18499;SDS011;9379;52.134;11.576;2022-11-15T07:08:23;8.98;;;7.93;;
18499;SDS011;9379;52.134;11.576;2022-11-15T07:10:50;7.97;;;6.28;;
18499;SDS011;9379;52.134;11.576;2022-11-15T07:13:22;9.18;;;8.15;;
18499;SDS011;9379;52.134;11.576;2022-11-15T07:15:51;9.75;;;7.47;;
18499;SDS011;9379;52.134;11.576;2022-11-15T07:18:18;7.43;;;6.72;;
18499;SDS011;9379;52.134;11.576;2022-11-15T07:20:46;7.70;;;6.22;;
18499;SDS011;9379;52.134;11.576;2022-11-15T07:23:16;6.03;;;5.43;;
18499;SDS011;9379;52.134;11.576;2022-11-15T07:25:43;8.15;;;5.93;;
18499;SDS011;9379;52.134;11.576;2022-11-15T07:28:10;7.00;;;6.28;;
18499;SDS011;9379;52.134;11.576;2022-11-15T07:30:39;7.18;;;6.50;;
18499;SDS011;9379;52.134;11.576;2022-11-15T07:33:06;6.72;;;5.72;;
18499;SDS011;9379;52.134;11.576;2022-11-15T07:35:33;8.63;;;7.28;;
18499;SDS011;9379;52.134;11.576;2022-11-15T07:38:00;6.43;;;5.82;;
18499;SDS011;9379;52.134;11.576;2022-11-15T07:40:29;10.77;;;7.15;;
18499;SDS011;9379;52.134;11.576;2022-11-15T07:43:01;9.05;;;7.80;;
18499;SDS011;9379;52.134;11.576;2022-11-15T07:45:28;9.00;;;7.07;;
18499;SDS011;9379;52.134;11.576;2022-11-15T07:47:57;16.27;;;7.85;;
18499;SDS011;9379;52.134;11.576;2022-11-15T07:50:24;9.15;;;8.15;;
18499;SDS011;9379;52.134;11.576;2022-11-15T07:52:54;7.88;;;6.50;;
18499;SDS011;9379;52.134;11.576;2022-11-15T07:55:21;13.52;;;7.35;;
18499;SDS011;9379;52.134;11.576;2022-11-15T07:57:48;7.15;;;5.53;;
18499;SDS011;9379;52.134;11.576;2022-11-15T08:00:16;6.95;;;6.03;;
18499;SDS011;9379;52.134;11.576;2022-11-15T08:02:44;8.52;;;7.70;;
18499;SDS011;9379;52.134;11.576;2022-11-15T08:05:12;10.43;;;6.82;;
18499;SDS011;9379;52.134;11.576;2022-11-15T08:07:39;11.20;;;7.25;;
18499;SDS011;9379;52.134;11.576;2022-11-15T08:10:07;14.52;;;9.15;;
18499;SDS011;9379;52.134;11.576;2022-11-15T08:12:34;8.18;;;7.30;;
18499;SDS011;9379;52.134;11.576;2022-11-15T08:15:01;8.52;;;7.70;;
18499;SDS011;9379;52.134;11.576;2022-11-15T08:17:28;8.98;;;6.70;;
18499;SDS011;9379;52.134;11.576;2022-11-15T08:19:57;13.48;;;8.77;;
18499;SDS011;9379;52.134;11.576;2022-11-15T08:22:26;11.70;;;9.77;;
18499;SDS011;9379;52.134;11.576;2022-11-15T08:24:53;11.93;;;8.20;;
18499;SDS011;9379;52.134;11.576;2022-11-15T08:27:20;10.55;;;9.30;;
18499;SDS011;9379;52.134;11.576;2022-11-15T08:29:47;10.77;;;9.77;;
18499;SDS011;9379;52.134;11.576;2022-11-15T08:32:15;12.38;;;9.85;;
18499;SDS011;9379;52.134;11.576;2022-11-15T08:34:43;14.43;;;10.52;;
18499;SDS011;9379;52.134;11.576;2022-11-15T08:37:10;8.60;;;7.70;;
18499;SDS011;9379;52.134;11.576;2022-11-15T08:39:38;20.27;;;10.75;;
18499;SDS011;9379;52.134;11.576;2022-11-15T08:42:04;9.43;;;8.38;;
18499;SDS011;9379;52.134;11.576;2022-11-15T08:44:31;9.75;;;7.85;;
18499;SDS011;9379;52.134;11.576;2022-11-15T08:46:58;8.80;;;7.55;;
18499;SDS011;9379;52.134;11.576;2022-11-15T08:49:25;12.98;;;7.03;;
18499;SDS011;9379;52.134;11.576;2022-11-15T08:51:52;11.25;;;8.30;;
18499;SDS011;9379;52.134;11.576;2022-11-15T08:54:19;8.13;;;7.05;;
18499;SDS011;9379;52.134;11.576;2022-11-15T08:56:47;14.18;;;8.98;;
18499;SDS011;9379;52.134;11.576;2022-11-15T08:59:14;13.25;;;9.38;;
18499;SDS011;9379;52.134;11.576;2022-11-15T09:01:40;8.70;;;6.75;;
18499;SDS011;9379;52.134;11.576;2022-11-15T09:04:07;9.82;;;8.35;;
18499;SDS011;9379;52.134;11.576;2022-11-15T09:06:34;11.90;;;8.38;;
18499;SDS011;9379;52.134;11.576;2022-11-15T09:09:01;14.23;;;8.75;;
18499;SDS011;9379;52.134;11.576;2022-11-15T09:11:28;9.57;;;8.20;;
18499;SDS011;9379;52.134;11.576;2022-11-15T09:13:57;7.20;;;6.15;;
18499;SDS011;9379;52.134;11.576;2022-11-15T09:16:23;7.53;;;6.47;;
18499;SDS011;9379;52.134;11.576;2022-11-15T09:18:50;13.00;;;9.02;;
18499;SDS011;9379;52.134;11.576;2022-11-15T09:21:18;12.57;;;6.85;;
18499;SDS011;9379;52.134;11.576;2022-11-15T09:23:45;7.10;;;6.50;;
18499;SDS011;9379;52.134;11.576;2022-11-15T09:26:12;9.40;;;7.85;;
18499;SDS011;9379;52.134;11.576;2022-11-15T09:28:39;7.40;;;6.70;;
18499;SDS011;9379;52.134;11.576;2022-11-15T09:31:08;9.52;;;8.15;;
18499;SDS011;9379;52.134;11.576;2022-11-15T09:33:35;10.07;;;8.35;;
18499;SDS011;9379;52.134;11.576;2022-11-15T09:36:03;11.50;;;9.48;;
18499;SDS011;9379;52.134;11.576;2022-11-15T09:38:31;12.27;;;8.85;;
18499;SDS011;9379;52.134;11.576;2022-11-15T09:41:08;7.60;;;6.63;;
18499;SDS011;9379;52.134;11.576;2022-11-15T09:43:52;7.15;;;5.95;;
18499;SDS011;9379;52.134;11.576;2022-11-15T09:46:33;14.05;;;8.07;;
18499;SDS011;9379;52.134;11.576;2022-11-15T09:49:07;6.95;;;6.22;;
18499;SDS011;9379;52.134;11.576;2022-11-15T09:51:36;12.93;;;7.72;;
18499;SDS011;9379;52.134;11.576;2022-11-15T09:54:12;6.93;;;5.65;;
18499;SDS011;9379;52.134;11.576;2022-11-15T09:56:48;4.40;;;4.00;;
18499;SDS011;9379;52.134;11.576;2022-11-15T10:02:42;6.68;;;4.80;;
18499;SDS011;9379;52.134;11.576;2022-11-15T10:05:19;4.72;;;4.30;;
18499;SDS011;9379;52.134;11.576;2022-11-15T10:07:50;4.88;;;4.35;;
18499;SDS011;9379;52.134;11.576;2022-11-15T10:10:25;8.10;;;5.72;;
18499;SDS011;9379;52.134;11.576;2022-11-15T10:12:57;7.45;;;4.18;;
18499;SDS011;9379;52.134;11.576;2022-11-15T10:15:25;8.50;;;5.68;;
18499;SDS011;9379;52.134;11.576;2022-11-15T10:18:01;5.60;;;4.25;;
18499;SDS011;9379;52.134;11.576;2022-11-15T10:20:39;11.05;;;4.60;;
18499;SDS011;9379;52.134;11.576;2022-11-15T10:23:13;7.28;;;4.80;;
18499;SDS011;9379;52.134;11.576;2022-11-15T10:25:41;5.53;;;4.80;;
18499;SDS011;9379;52.134;11.576;2022-11-15T10:28:10;6.50;;;5.50;;
18499;SDS011;9379;52.134;11.576;2022-11-15T10:30:40;3.92;;;3.53;;
18499;SDS011;9379;52.134;11.576;2022-11-15T10:33:17;4.15;;;3.78;;
18499;SDS011;9379;52.134;11.576;2022-11-15T10:35:48;5.97;;;4.35;;
18499;SDS011;9379;52.134;11.576;2022-11-15T10:38:49;7.28;;;4.07;;
18499;SDS011;9379;52.134;11.576;2022-11-15T10:41:21;8.40;;;5.13;;
18499;SDS011;9379;52.134;11.576;2022-11-15T10:46:45;6.65;;;4.93;;
18499;SDS011;9379;52.134;11.576;2022-11-15T10:49:17;9.25;;;7.43;;
18499;SDS011;9379;52.134;11.576;2022-11-15T10:51:46;9.68;;;7.05;;
18499;SDS011;9379;52.134;11.576;2022-11-15T10:54:15;6.55;;;6.00;;
18499;SDS011;9379;52.134;11.576;2022-11-15T10:56:48;5.93;;;4.78;;
18499;SDS011;9379;52.134;11.576;2022-11-15T10:59:19;5.75;;;5.25;;
18499;SDS011;9379;52.134;11.576;2022-11-15T11:01:51;5.25;;;4.55;;
18499;SDS011;9379;52.134;11.576;2022-11-15T11:04:19;6.05;;;5.50;;
18499;SDS011;9379;52.134;11.576;2022-11-15T11:06:47;7.93;;;6.45;;
18499;SDS011;9379;52.134;11.576;2022-11-15T11:09:22;7.78;;;5.38;;
18499;SDS011;9379;52.134;11.576;2022-11-15T11:11:54;6.50;;;5.25;;
18499;SDS011;9379;52.134;11.576;2022-11-15T11:14:22;6.72;;;5.47;;
18499;SDS011;9379;52.134;11.576;2022-11-15T11:16:52;7.78;;;4.97;;
18499;SDS011;9379;52.134;11.576;2022-11-15T11:19:35;10.15;;;5.60;;
18499;SDS011;9379;52.134;11.576;2022-11-15T11:22:12;8.05;;;5.47;;
18499;SDS011;9379;52.134;11.576;2022-11-15T11:24:47;5.32;;;4.80;;
18499;SDS011;9379;52.134;11.576;2022-11-15T11:27:24;7.47;;;6.63;;
18499;SDS011;9379;52.134;11.576;2022-11-15T11:30:02;6.75;;;5.75;;
18499;SDS011;9379;52.134;11.576;2022-11-15T11:32:40;6.03;;;4.65;;
18499;SDS011;9379;52.134;11.576;2022-11-15T11:35:17;5.78;;;5.15;;
18499;SDS011;9379;52.134;11.576;2022-11-15T11:37:49;10.57;;;5.00;;
18499;SDS011;9379;52.134;11.576;2022-11-15T11:40:26;8.02;;;4.80;;
18499;SDS011;9379;52.134;11.576;2022-11-15T11:42:58;6.25;;;4.75;;
18499;SDS011;9379;52.134;11.576;2022-11-15T11:48:24;5.18;;;4.38;;
18499;SDS011;9379;52.134;11.576;2022-11-15T11:51:08;6.90;;;5.05;;
18499;SDS011;9379;52.134;11.576;2022-11-15T11:53:40;5.70;;;3.97;;
18499;SDS011;9379;52.134;11.576;2022-11-15T11:56:15;5.20;;;4.75;;
18499;SDS011;9379;52.134;11.576;2022-11-15T11:58:47;6.88;;;4.55;;
18499;SDS011;9379;52.134;11.576;2022-11-15T12:01:17;6.88;;;3.42;;
18499;SDS011;9379;52.134;11.576;2022-11-15T12:03:51;8.13;;;5.85;;
18499;SDS011;9379;52.134;11.576;2022-11-15T12:06:23;6.45;;;5.78;;
18499;SDS011;9379;52.134;11.576;2022-11-15T12:08:56;7.00;;;4.60;;
18499;SDS011;9379;52.134;11.576;2022-11-15T12:11:28;5.72;;;5.00;;
18499;SDS011;9379;52.134;11.576;2022-11-15T12:14:00;5.35;;;4.60;;
18499;SDS011;9379;52.134;11.576;2022-11-15T12:16:31;5.63;;;4.35;;
18499;SDS011;9379;52.134;11.576;2022-11-15T12:18:59;15.32;;;5.78;;
18499;SDS011;9379;52.134;11.576;2022-11-15T12:21:32;8.60;;;4.20;;
18499;SDS011;9379;52.134;11.576;2022-11-15T12:24:06;5.90;;;4.72;;
18499;SDS011;9379;52.134;11.576;2022-11-15T12:26:39;10.35;;;6.32;;
18499;SDS011;9379;52.134;11.576;2022-11-15T12:29:11;6.22;;;4.97;;
18499;SDS011;9379;52.134;11.576;2022-11-15T12:31:44;7.65;;;6.10;;
18499;SDS011;9379;52.134;11.576;2022-11-15T12:34:29;5.30;;;4.80;;
18499;SDS011;9379;52.134;11.576;2022-11-15T12:37:04;4.68;;;4.28;;
18499;SDS011;9379;52.134;11.576;2022-11-15T12:40:21;6.82;;;4.55;;
18499;SDS011;9379;52.134;11.576;2022-11-15T12:45:52;4.32;;;3.92;;
18499;SDS011;9379;52.134;11.576;2022-11-15T12:51:12;8.23;;;5.35;;
18499;SDS011;9379;52.134;11.576;2022-11-15T12:53:41;5.85;;;4.32;;
18499;SDS011;9379;52.134;11.576;2022-11-15T12:56:09;8.77;;;4.57;;
18499;SDS011;9379;52.134;11.576;2022-11-15T12:58:46;4.63;;;4.10;;
18499;SDS011;9379;52.134;11.576;2022-11-15T13:04:27;7.07;;;4.43;;
18499;SDS011;9379;52.134;11.576;2022-11-15T13:06:58;8.18;;;5.82;;
18499;SDS011;9379;52.134;11.576;2022-11-15T13:15:37;5.97;;;5.32;;
18499;SDS011;9379;52.134;11.576;2022-11-15T13:20:59;4.90;;;4.32;;
18499;SDS011;9379;52.134;11.576;2022-11-15T13:23:51;4.68;;;3.90;;
18499;SDS011;9379;52.134;11.576;2022-11-15T13:26:20;6.60;;;5.25;;
18499;SDS011;9379;52.134;11.576;2022-11-15T13:28:48;5.65;;;5.00;;
18499;SDS011;9379;52.134;11.576;2022-11-15T13:31:28;5.63;;;4.00;;
18499;SDS011;9379;52.134;11.576;2022-11-15T13:33:58;7.38;;;4.75;;
18499;SDS011;9379;52.134;11.576;2022-11-15T13:36:28;4.72;;;4.22;;
18499;SDS011;9379;52.134;11.576;2022-11-15T13:38:59;4.32;;;3.92;;
18499;SDS011;9379;52.134;11.576;2022-11-15T13:41:30;7.05;;;3.60;;
18499;SDS011;9379;52.134;11.576;2022-11-15T13:43:59;3.50;;;3.17;;
18499;SDS011;9379;52.134;11.576;2022-11-15T13:46:27;5.40;;;4.53;;
18499;SDS011;9379;52.134;11.576;2022-11-15T13:48:56;7.90;;;3.78;;
18499;SDS011;9379;52.134;11.576;2022-11-15T13:51:28;9.70;;;4.57;;
18499;SDS011;9379;52.134;11.576;2022-11-15T13:54:03;6.40;;;4.57;;
18499;SDS011;9379;52.134;11.576;2022-11-15T13:56:44;4.90;;;4.18;;
18499;SDS011;9379;52.134;11.576;2022-11-15T13:59:15;6.05;;;4.50;;
18499;SDS011;9379;52.134;11.576;2022-11-15T14:01:48;8.55;;;5.78;;
18499;SDS011;9379;52.134;11.576;2022-11-15T14:04:18;5.10;;;3.88;;
18499;SDS011;9379;52.134;11.576;2022-11-15T14:06:47;4.70;;;3.78;;
18499;SDS011;9379;52.134;11.576;2022-11-15T14:12:23;6.88;;;4.72;;
18499;SDS011;9379;52.134;11.576;2022-11-15T14:14:55;6.10;;;4.80;;
18499;SDS011;9379;52.134;11.576;2022-11-15T14:17:33;7.55;;;6.47;;
18499;SDS011;9379;52.134;11.576;2022-11-15T14:20:02;7.40;;;4.45;;
18499;SDS011;9379;52.134;11.576;2022-11-15T14:22:54;4.40;;;4.00;;
18499;SDS011;9379;52.134;11.576;2022-11-15T14:25:23;11.48;;;4.93;;
18499;SDS011;9379;52.134;11.576;2022-11-15T14:28:15;5.60;;;4.35;;
18499;SDS011;9379;52.134;11.576;2022-11-15T14:30:56;5.18;;;3.50;;
18499;SDS011;9379;52.134;11.576;2022-11-15T14:33:25;4.95;;;4.38;;
18499;SDS011;9379;52.134;11.576;2022-11-15T14:35:55;4.72;;;4.22;;
18499;SDS011;9379;52.134;11.576;2022-11-15T14:38:23;5.10;;;3.33;;
18499;SDS011;9379;52.134;11.576;2022-11-15T14:40:51;5.57;;;3.00;;
18499;SDS011;9379;52.134;11.576;2022-11-15T14:43:20;4.38;;;3.75;;
18499;SDS011;9379;52.134;11.576;2022-11-15T14:45:47;3.53;;;3.17;;
18499;SDS011;9379;52.134;11.576;2022-11-15T14:48:14;4.63;;;3.33;;
18499;SDS011;9379;52.134;11.576;2022-11-15T14:50:41;3.85;;;3.25;;
18499;SDS011;9379;52.134;11.576;2022-11-15T14:53:12;2.95;;;2.60;;
18499;SDS011;9379;52.134;11.576;2022-11-15T14:55:44;4.80;;;4.13;;
18499;SDS011;9379;52.134;11.576;2022-11-15T14:58:11;3.90;;;3.28;;
18499;SDS011;9379;52.134;11.576;2022-11-15T15:00:40;3.55;;;3.08;;
18499;SDS011;9379;52.134;11.576;2022-11-15T15:03:08;5.57;;;2.85;;
18499;SDS011;9379;52.134;11.576;2022-11-15T15:05:39;3.08;;;2.88;;
18499;SDS011;9379;52.134;11.576;2022-11-15T15:08:07;2.30;;;2.13;;
18499;SDS011;9379;52.134;11.576;2022-11-15T15:10:35;3.72;;;3.38;;
18499;SDS011;9379;52.134;11.576;2022-11-15T15:13:03;3.50;;;3.20;;
18499;SDS011;9379;52.134;11.576;2022-11-15T15:15:32;4.03;;;3.05;;
18499;SDS011;9379;52.134;11.576;2022-11-15T15:18:01;9.05;;;3.55;;
18499;SDS011;9379;52.134;11.576;2022-11-15T15:20:29;3.47;;;3.15;;
18499;SDS011;9379;52.134;11.576;2022-11-15T15:22:56;3.80;;;3.38;;
18499;SDS011;9379;52.134;11.576;2022-11-15T15:25:24;3.63;;;2.70;;
18499;SDS011;9379;52.134;11.576;2022-11-15T15:27:53;4.85;;;3.97;;
18499;SDS011;9379;52.134;11.576;2022-11-15T15:30:21;4.35;;;3.33;;
18499;SDS011;9379;52.134;11.576;2022-11-15T15:32:48;4.60;;;3.33;;
18499;SDS011;9379;52.134;11.576;2022-11-15T15:35:17;3.20;;;2.92;;
18499;SDS011;9379;52.134;11.576;2022-11-15T15:37:45;2.90;;;2.70;;
18499;SDS011;9379;52.134;11.576;2022-11-15T15:40:14;7.15;;;4.22;;
18499;SDS011;9379;52.134;11.576;2022-11-15T15:42:43;4.60;;;3.30;;
18499;SDS011;9379;52.134;11.576;2022-11-15T15:45:10;4.93;;;3.05;;
18499;SDS011;9379;52.134;11.576;2022-11-15T15:47:38;3.13;;;2.83;;
18499;SDS011;9379;52.134;11.576;2022-11-15T15:50:09;3.67;;;3.33;;
18499;SDS011;9379;52.134;11.576;2022-11-15T15:52:44;6.22;;;3.92;;
18499;SDS011;9379;52.134;11.576;2022-11-15T15:55:11;5.95;;;3.60;;
18499;SDS011;9379;52.134;11.576;2022-11-15T15:57:38;3.75;;;2.50;;
18499;SDS011;9379;52.134;11.576;2022-11-15T16:00:05;5.57;;;3.83;;
18499;SDS011;9379;52.134;11.576;2022-11-15T16:02:33;5.78;;;4.22;;